sensor_id;sensor_type;location;lat;lon;timestamp;P1;durP1;ratioP1;P2;durP2;ratioP2
75526;SDS011;64107;49.248;7.006;2023-04-15T00:01:42;7.18;;;2.55;;
75526;SDS011;64107;49.248;7.006;2023-04-15T00:06:35;4.25;;;2.42;;
75526;SDS011;64107;49.248;7.006;2023-04-15T00:09:02;7.28;;;2.80;;
75526;SDS011;64107;49.248;7.006;2023-04-15T00:13:54;4.90;;;2.97;;
75526;SDS011;64107;49.248;7.006;2023-04-15T00:18:46;4.15;;;2.55;;
75526;SDS011;64107;49.248;7.006;2023-04-15T00:21:12;6.45;;;2.70;;
75526;SDS011;64107;49.248;7.006;2023-04-15T00:23:38;9.30;;;3.17;;
75526;SDS011;64107;49.248;7.006;2023-04-15T00:28:31;5.55;;;3.38;;
75526;SDS011;64107;49.248;7.006;2023-04-15T00:33:23;4.80;;;2.55;;
75526;SDS011;64107;49.248;7.006;2023-04-15T00:35:49;4.53;;;1.88;;
75526;SDS011;64107;49.248;7.006;2023-04-15T00:38:15;5.60;;;2.97;;
75526;SDS011;64107;49.248;7.006;2023-04-15T00:40:41;9.20;;;2.97;;
75526;SDS011;64107;49.248;7.006;2023-04-15T00:43:08;7.25;;;3.05;;
75526;SDS011;64107;49.248;7.006;2023-04-15T00:45:34;8.40;;;3.00;;
75526;SDS011;64107;49.248;7.006;2023-04-15T00:48:00;6.13;;;3.92;;
75526;SDS011;64107;49.248;7.006;2023-04-15T00:50:26;7.43;;;2.97;;
75526;SDS011;64107;49.248;7.006;2023-04-15T00:52:52;9.35;;;2.97;;
75526;SDS011;64107;49.248;7.006;2023-04-15T00:55:19;7.18;;;3.30;;
75526;SDS011;64107;49.248;7.006;2023-04-15T00:57:45;7.50;;;3.33;;
75526;SDS011;64107;49.248;7.006;2023-04-15T01:00:11;5.82;;;3.30;;
75526;SDS011;64107;49.248;7.006;2023-04-15T01:02:37;7.13;;;3.15;;
75526;SDS011;64107;49.248;7.006;2023-04-15T01:05:03;6.38;;;3.78;;
75526;SDS011;64107;49.248;7.006;2023-04-15T01:07:30;6.68;;;3.47;;
75526;SDS011;64107;49.248;7.006;2023-04-15T01:09:56;5.78;;;2.65;;
75526;SDS011;64107;49.248;7.006;2023-04-15T01:14:49;6.95;;;2.25;;
75526;SDS011;64107;49.248;7.006;2023-04-15T01:17:15;5.25;;;2.80;;
75526;SDS011;64107;49.248;7.006;2023-04-15T01:19:41;6.50;;;3.40;;
75526;SDS011;64107;49.248;7.006;2023-04-15T01:22:07;4.90;;;2.92;;
75526;SDS011;64107;49.248;7.006;2023-04-15T01:24:34;4.38;;;2.95;;
75526;SDS011;64107;49.248;7.006;2023-04-15T01:27:00;8.82;;;4.20;;
75526;SDS011;64107;49.248;7.006;2023-04-15T01:29:29;9.85;;;3.25;;
75526;SDS011;64107;49.248;7.006;2023-04-15T01:31:56;7.25;;;3.60;;
75526;SDS011;64107;49.248;7.006;2023-04-15T01:34:22;7.45;;;3.33;;
75526;SDS011;64107;49.248;7.006;2023-04-15T01:36:48;6.85;;;2.60;;
75526;SDS011;64107;49.248;7.006;2023-04-15T01:39:15;4.68;;;1.60;;
75526;SDS011;64107;49.248;7.006;2023-04-15T01:41:41;4.28;;;2.53;;
75526;SDS011;64107;49.248;7.006;2023-04-15T01:44:08;7.30;;;3.67;;
75526;SDS011;64107;49.248;7.006;2023-04-15T01:46:34;9.07;;;3.88;;
75526;SDS011;64107;49.248;7.006;2023-04-15T01:49:00;11.23;;;3.53;;
75526;SDS011;64107;49.248;7.006;2023-04-15T01:53:53;6.50;;;3.33;;
75526;SDS011;64107;49.248;7.006;2023-04-15T01:56:21;6.82;;;3.60;;
75526;SDS011;64107;49.248;7.006;2023-04-15T01:58:48;7.30;;;3.28;;
75526;SDS011;64107;49.248;7.006;2023-04-15T02:01:14;4.93;;;3.08;;
75526;SDS011;64107;49.248;7.006;2023-04-15T02:03:43;8.93;;;3.78;;
75526;SDS011;64107;49.248;7.006;2023-04-15T02:08:36;6.88;;;3.55;;
75526;SDS011;64107;49.248;7.006;2023-04-15T02:11:02;6.40;;;3.33;;
75526;SDS011;64107;49.248;7.006;2023-04-15T02:13:28;6.43;;;3.35;;
75526;SDS011;64107;49.248;7.006;2023-04-15T02:15:54;6.30;;;3.25;;
75526;SDS011;64107;49.248;7.006;2023-04-15T02:18:20;4.80;;;2.80;;
75526;SDS011;64107;49.248;7.006;2023-04-15T02:20:47;5.68;;;2.63;;
75526;SDS011;64107;49.248;7.006;2023-04-15T02:23:13;6.97;;;3.25;;
75526;SDS011;64107;49.248;7.006;2023-04-15T02:25:39;5.35;;;2.60;;
75526;SDS011;64107;49.248;7.006;2023-04-15T02:28:05;6.85;;;3.28;;
75526;SDS011;64107;49.248;7.006;2023-04-15T02:30:32;7.90;;;3.15;;
75526;SDS011;64107;49.248;7.006;2023-04-15T02:32:59;11.60;;;3.50;;
75526;SDS011;64107;49.248;7.006;2023-04-15T02:35:25;5.10;;;2.67;;
75526;SDS011;64107;49.248;7.006;2023-04-15T02:37:51;5.57;;;2.55;;
75526;SDS011;64107;49.248;7.006;2023-04-15T02:40:17;5.70;;;2.67;;
75526;SDS011;64107;49.248;7.006;2023-04-15T02:42:43;3.03;;;1.70;;
75526;SDS011;64107;49.248;7.006;2023-04-15T02:45:10;3.70;;;2.33;;
75526;SDS011;64107;49.248;7.006;2023-04-15T02:47:36;5.00;;;3.03;;
75526;SDS011;64107;49.248;7.006;2023-04-15T02:50:09;6.30;;;3.42;;
75526;SDS011;64107;49.248;7.006;2023-04-15T02:52:38;11.30;;;3.53;;
75526;SDS011;64107;49.248;7.006;2023-04-15T02:55:05;3.70;;;2.40;;
75526;SDS011;64107;49.248;7.006;2023-04-15T02:57:32;3.92;;;2.40;;
75526;SDS011;64107;49.248;7.006;2023-04-15T03:00:01;4.82;;;2.25;;
75526;SDS011;64107;49.248;7.006;2023-04-15T03:02:32;4.10;;;2.70;;
75526;SDS011;64107;49.248;7.006;2023-04-15T03:04:59;4.32;;;3.00;;
75526;SDS011;64107;49.248;7.006;2023-04-15T03:07:25;7.40;;;3.50;;
75526;SDS011;64107;49.248;7.006;2023-04-15T03:09:51;6.13;;;3.85;;
75526;SDS011;64107;49.248;7.006;2023-04-15T03:12:17;5.47;;;2.72;;
75526;SDS011;64107;49.248;7.006;2023-04-15T03:17:09;7.97;;;4.32;;
75526;SDS011;64107;49.248;7.006;2023-04-15T03:19:36;8.50;;;2.38;;
75526;SDS011;64107;49.248;7.006;2023-04-15T03:22:02;5.72;;;3.53;;
75526;SDS011;64107;49.248;7.006;2023-04-15T03:24:28;4.20;;;2.30;;
75526;SDS011;64107;49.248;7.006;2023-04-15T03:26:54;4.70;;;2.67;;
75526;SDS011;64107;49.248;7.006;2023-04-15T03:29:21;5.35;;;2.90;;
75526;SDS011;64107;49.248;7.006;2023-04-15T03:34:13;5.97;;;2.75;;
75526;SDS011;64107;49.248;7.006;2023-04-15T03:36:39;8.18;;;3.45;;
75526;SDS011;64107;49.248;7.006;2023-04-15T03:39:06;8.00;;;2.47;;
75526;SDS011;64107;49.248;7.006;2023-04-15T03:41:32;4.82;;;2.22;;
75526;SDS011;64107;49.248;7.006;2023-04-15T03:43:58;4.05;;;2.53;;
75526;SDS011;64107;49.248;7.006;2023-04-15T03:46:24;4.55;;;2.45;;
75526;SDS011;64107;49.248;7.006;2023-04-15T03:48:50;6.28;;;2.88;;
75526;SDS011;64107;49.248;7.006;2023-04-15T03:51:16;5.93;;;2.17;;
75526;SDS011;64107;49.248;7.006;2023-04-15T03:53:42;4.78;;;2.65;;
75526;SDS011;64107;49.248;7.006;2023-04-15T03:56:08;7.05;;;2.63;;
75526;SDS011;64107;49.248;7.006;2023-04-15T03:58:34;6.15;;;3.70;;
75526;SDS011;64107;49.248;7.006;2023-04-15T04:01:00;4.15;;;2.17;;
75526;SDS011;64107;49.248;7.006;2023-04-15T04:03:27;4.85;;;2.30;;
75526;SDS011;64107;49.248;7.006;2023-04-15T04:05:53;11.85;;;4.90;;
75526;SDS011;64107;49.248;7.006;2023-04-15T04:08:19;27.25;;;10.48;;
75526;SDS011;64107;49.248;7.006;2023-04-15T04:10:46;3.17;;;2.13;;
75526;SDS011;64107;49.248;7.006;2023-04-15T04:13:12;6.30;;;3.15;;
75526;SDS011;64107;49.248;7.006;2023-04-15T04:15:38;3.15;;;2.20;;
75526;SDS011;64107;49.248;7.006;2023-04-15T04:18:04;5.40;;;2.42;;
75526;SDS011;64107;49.248;7.006;2023-04-15T04:20:30;12.52;;;2.80;;
75526;SDS011;64107;49.248;7.006;2023-04-15T04:22:56;4.00;;;2.40;;
75526;SDS011;64107;49.248;7.006;2023-04-15T04:25:22;4.97;;;2.10;;
75526;SDS011;64107;49.248;7.006;2023-04-15T04:27:48;3.00;;;2.20;;
75526;SDS011;64107;49.248;7.006;2023-04-15T04:30:15;6.93;;;2.72;;
75526;SDS011;64107;49.248;7.006;2023-04-15T04:32:41;4.78;;;2.53;;
75526;SDS011;64107;49.248;7.006;2023-04-15T04:35:07;4.03;;;2.55;;
75526;SDS011;64107;49.248;7.006;2023-04-15T04:40:00;6.13;;;3.30;;
75526;SDS011;64107;49.248;7.006;2023-04-15T04:42:26;3.85;;;2.42;;
75526;SDS011;64107;49.248;7.006;2023-04-15T04:44:52;3.50;;;2.60;;
75526;SDS011;64107;49.248;7.006;2023-04-15T04:47:18;6.90;;;3.20;;
75526;SDS011;64107;49.248;7.006;2023-04-15T04:52:10;7.53;;;2.80;;
75526;SDS011;64107;49.248;7.006;2023-04-15T04:54:36;6.43;;;2.75;;
75526;SDS011;64107;49.248;7.006;2023-04-15T04:57:02;5.53;;;3.05;;
75526;SDS011;64107;49.248;7.006;2023-04-15T04:59:29;4.38;;;2.45;;
75526;SDS011;64107;49.248;7.006;2023-04-15T05:01:55;5.53;;;2.75;;
75526;SDS011;64107;49.248;7.006;2023-04-15T05:04:21;5.75;;;3.47;;
75526;SDS011;64107;49.248;7.006;2023-04-15T05:06:47;5.78;;;2.97;;
75526;SDS011;64107;49.248;7.006;2023-04-15T05:09:13;3.95;;;2.70;;
75526;SDS011;64107;49.248;7.006;2023-04-15T05:14:05;4.75;;;2.88;;
75526;SDS011;64107;49.248;7.006;2023-04-15T05:16:32;7.38;;;3.53;;
75526;SDS011;64107;49.248;7.006;2023-04-15T05:18:58;3.38;;;2.38;;
75526;SDS011;64107;49.248;7.006;2023-04-15T05:21:24;3.65;;;3.17;;
75526;SDS011;64107;49.248;7.006;2023-04-15T05:23:51;6.50;;;2.60;;
75526;SDS011;64107;49.248;7.006;2023-04-15T05:26:17;3.08;;;2.63;;
75526;SDS011;64107;49.248;7.006;2023-04-15T05:28:43;4.82;;;2.80;;
75526;SDS011;64107;49.248;7.006;2023-04-15T05:33:36;4.65;;;3.38;;
75526;SDS011;64107;49.248;7.006;2023-04-15T05:36:02;6.35;;;3.08;;
75526;SDS011;64107;49.248;7.006;2023-04-15T05:38:28;8.27;;;3.00;;
75526;SDS011;64107;49.248;7.006;2023-04-15T05:43:20;6.50;;;3.10;;
75526;SDS011;64107;49.248;7.006;2023-04-15T05:45:46;6.38;;;2.92;;
75526;SDS011;64107;49.248;7.006;2023-04-15T05:48:12;7.35;;;3.00;;
75526;SDS011;64107;49.248;7.006;2023-04-15T05:50:41;6.28;;;3.20;;
75526;SDS011;64107;49.248;7.006;2023-04-15T05:53:08;10.10;;;3.40;;
75526;SDS011;64107;49.248;7.006;2023-04-15T05:55:34;8.35;;;3.28;;
75526;SDS011;64107;49.248;7.006;2023-04-15T05:58:00;7.45;;;3.72;;
75526;SDS011;64107;49.248;7.006;2023-04-15T06:00:27;8.38;;;3.97;;
75526;SDS011;64107;49.248;7.006;2023-04-15T06:02:54;6.90;;;3.90;;
75526;SDS011;64107;49.248;7.006;2023-04-15T06:05:22;9.60;;;3.72;;
75526;SDS011;64107;49.248;7.006;2023-04-15T06:07:48;8.00;;;4.07;;
75526;SDS011;64107;49.248;7.006;2023-04-15T06:10:14;9.30;;;4.18;;
75526;SDS011;64107;49.248;7.006;2023-04-15T06:15:06;9.65;;;4.05;;
75526;SDS011;64107;49.248;7.006;2023-04-15T06:17:34;8.68;;;3.90;;
75526;SDS011;64107;49.248;7.006;2023-04-15T06:20:00;6.60;;;3.65;;
75526;SDS011;64107;49.248;7.006;2023-04-15T06:22:27;6.05;;;3.88;;
75526;SDS011;64107;49.248;7.006;2023-04-15T06:24:53;5.72;;;3.20;;
75526;SDS011;64107;49.248;7.006;2023-04-15T06:27:19;6.30;;;4.03;;
75526;SDS011;64107;49.248;7.006;2023-04-15T06:29:46;6.10;;;3.40;;
75526;SDS011;64107;49.248;7.006;2023-04-15T06:32:12;6.38;;;3.42;;
75526;SDS011;64107;49.248;7.006;2023-04-15T06:34:39;7.45;;;3.28;;
75526;SDS011;64107;49.248;7.006;2023-04-15T06:37:05;4.93;;;3.50;;
75526;SDS011;64107;49.248;7.006;2023-04-15T06:41:57;5.65;;;3.35;;
75526;SDS011;64107;49.248;7.006;2023-04-15T06:44:23;7.88;;;3.40;;
75526;SDS011;64107;49.248;7.006;2023-04-15T06:46:49;7.95;;;3.00;;
75526;SDS011;64107;49.248;7.006;2023-04-15T06:49:15;5.05;;;3.15;;
75526;SDS011;64107;49.248;7.006;2023-04-15T06:51:41;4.13;;;3.28;;
75526;SDS011;64107;49.248;7.006;2023-04-15T06:56:33;8.93;;;3.08;;
75526;SDS011;64107;49.248;7.006;2023-04-15T06:59:00;6.43;;;3.40;;
75526;SDS011;64107;49.248;7.006;2023-04-15T07:03:52;8.40;;;3.90;;
75526;SDS011;64107;49.248;7.006;2023-04-15T07:08:45;7.53;;;2.80;;
75526;SDS011;64107;49.248;7.006;2023-04-15T07:13:38;3.75;;;2.10;;
75526;SDS011;64107;49.248;7.006;2023-04-15T07:18:30;6.90;;;2.42;;
75526;SDS011;64107;49.248;7.006;2023-04-15T07:20:56;7.32;;;2.95;;
75526;SDS011;64107;49.248;7.006;2023-04-15T07:23:22;4.95;;;2.25;;
75526;SDS011;64107;49.248;7.006;2023-04-15T07:25:48;6.53;;;2.75;;
75526;SDS011;64107;49.248;7.006;2023-04-15T07:28:14;5.47;;;2.55;;
75526;SDS011;64107;49.248;7.006;2023-04-15T07:30:40;5.93;;;3.15;;
75526;SDS011;64107;49.248;7.006;2023-04-15T07:33:06;6.75;;;2.45;;
75526;SDS011;64107;49.248;7.006;2023-04-15T07:35:33;4.72;;;2.22;;
75526;SDS011;64107;49.248;7.006;2023-04-15T07:37:59;3.63;;;2.00;;
75526;SDS011;64107;49.248;7.006;2023-04-15T07:40:25;6.72;;;2.78;;
75526;SDS011;64107;49.248;7.006;2023-04-15T07:42:52;6.07;;;2.42;;
75526;SDS011;64107;49.248;7.006;2023-04-15T07:45:18;3.60;;;2.20;;
75526;SDS011;64107;49.248;7.006;2023-04-15T07:47:45;5.35;;;2.60;;
75526;SDS011;64107;49.248;7.006;2023-04-15T07:50:11;5.07;;;2.15;;
75526;SDS011;64107;49.248;7.006;2023-04-15T07:52:37;3.83;;;2.20;;
75526;SDS011;64107;49.248;7.006;2023-04-15T07:55:04;3.88;;;2.38;;
75526;SDS011;64107;49.248;7.006;2023-04-15T07:57:32;3.05;;;2.75;;
75526;SDS011;64107;49.248;7.006;2023-04-15T07:59:59;4.20;;;2.05;;
75526;SDS011;64107;49.248;7.006;2023-04-15T08:02:27;3.35;;;2.05;;
75526;SDS011;64107;49.248;7.006;2023-04-15T08:04:53;4.15;;;2.25;;
75526;SDS011;64107;49.248;7.006;2023-04-15T08:07:19;5.05;;;2.00;;
75526;SDS011;64107;49.248;7.006;2023-04-15T08:09:45;3.65;;;1.88;;
75526;SDS011;64107;49.248;7.006;2023-04-15T08:12:12;5.30;;;2.08;;
75526;SDS011;64107;49.248;7.006;2023-04-15T08:14:38;4.30;;;1.95;;
75526;SDS011;64107;49.248;7.006;2023-04-15T08:17:04;3.08;;;1.70;;
75526;SDS011;64107;49.248;7.006;2023-04-15T08:19:31;4.82;;;1.95;;
75526;SDS011;64107;49.248;7.006;2023-04-15T08:21:57;6.45;;;2.20;;
75526;SDS011;64107;49.248;7.006;2023-04-15T08:24:23;4.22;;;1.85;;
75526;SDS011;64107;49.248;7.006;2023-04-15T08:26:50;3.95;;;1.55;;
75526;SDS011;64107;49.248;7.006;2023-04-15T08:29:16;6.60;;;2.17;;
75526;SDS011;64107;49.248;7.006;2023-04-15T08:31:43;3.17;;;1.73;;
75526;SDS011;64107;49.248;7.006;2023-04-15T08:34:12;3.78;;;1.75;;
75526;SDS011;64107;49.248;7.006;2023-04-15T08:36:39;2.60;;;2.03;;
75526;SDS011;64107;49.248;7.006;2023-04-15T08:39:05;2.40;;;1.42;;
75526;SDS011;64107;49.248;7.006;2023-04-15T08:42:18;6.65;;;2.10;;
75526;SDS011;64107;49.248;7.006;2023-04-15T08:44:32;3.17;;;1.90;;
75526;SDS011;64107;49.248;7.006;2023-04-15T08:47:02;4.10;;;2.08;;
75526;SDS011;64107;49.248;7.006;2023-04-15T08:49:29;4.68;;;1.92;;
75526;SDS011;64107;49.248;7.006;2023-04-15T08:51:57;3.75;;;1.70;;
75526;SDS011;64107;49.248;7.006;2023-04-15T08:54:24;2.92;;;1.70;;
75526;SDS011;64107;49.248;7.006;2023-04-15T08:56:51;5.65;;;1.75;;
75526;SDS011;64107;49.248;7.006;2023-04-15T08:59:18;4.97;;;2.40;;
75526;SDS011;64107;49.248;7.006;2023-04-15T09:01:45;4.55;;;1.75;;
75526;SDS011;64107;49.248;7.006;2023-04-15T09:04:12;4.45;;;1.85;;
75526;SDS011;64107;49.248;7.006;2023-04-15T09:06:39;3.35;;;1.50;;
75526;SDS011;64107;49.248;7.006;2023-04-15T09:09:05;4.38;;;1.55;;
75526;SDS011;64107;49.248;7.006;2023-04-15T09:11:31;3.35;;;1.27;;
75526;SDS011;64107;49.248;7.006;2023-04-15T09:13:58;4.13;;;1.65;;
75526;SDS011;64107;49.248;7.006;2023-04-15T09:16:24;4.60;;;1.10;;
75526;SDS011;64107;49.248;7.006;2023-04-15T09:18:51;4.03;;;1.17;;
75526;SDS011;64107;49.248;7.006;2023-04-15T09:21:17;4.18;;;1.75;;
75526;SDS011;64107;49.248;7.006;2023-04-15T09:23:53;3.00;;;1.30;;
75526;SDS011;64107;49.248;7.006;2023-04-15T09:26:31;3.13;;;1.48;;
75526;SDS011;64107;49.248;7.006;2023-04-15T09:29:07;2.67;;;1.23;;
75526;SDS011;64107;49.248;7.006;2023-04-15T09:31:37;2.35;;;1.13;;
75526;SDS011;64107;49.248;7.006;2023-04-15T09:34:04;4.00;;;1.40;;
75526;SDS011;64107;49.248;7.006;2023-04-15T09:36:40;4.53;;;1.08;;
75526;SDS011;64107;49.248;7.006;2023-04-15T09:39:20;4.25;;;1.80;;
75526;SDS011;64107;49.248;7.006;2023-04-15T09:41:46;2.53;;;1.30;;
75526;SDS011;64107;49.248;7.006;2023-04-15T09:44:28;3.53;;;1.30;;
75526;SDS011;64107;49.248;7.006;2023-04-15T09:46:54;5.20;;;1.73;;
75526;SDS011;64107;49.248;7.006;2023-04-15T09:49:20;3.40;;;1.27;;
75526;SDS011;64107;49.248;7.006;2023-04-15T09:51:47;2.65;;;1.05;;
75526;SDS011;64107;49.248;7.006;2023-04-15T09:54:17;3.60;;;1.15;;
75526;SDS011;64107;49.248;7.006;2023-04-15T09:56:47;1.33;;;0.80;;
75526;SDS011;64107;49.248;7.006;2023-04-15T09:59:13;2.78;;;0.98;;
75526;SDS011;64107;49.248;7.006;2023-04-15T10:01:40;2.08;;;0.98;;
75526;SDS011;64107;49.248;7.006;2023-04-15T10:04:07;4.78;;;1.52;;
75526;SDS011;64107;49.248;7.006;2023-04-15T10:06:33;2.17;;;0.70;;
75526;SDS011;64107;49.248;7.006;2023-04-15T10:09:00;1.98;;;0.80;;
75526;SDS011;64107;49.248;7.006;2023-04-15T10:11:29;6.03;;;1.17;;
75526;SDS011;64107;49.248;7.006;2023-04-15T10:13:56;3.97;;;0.90;;
75526;SDS011;64107;49.248;7.006;2023-04-15T10:16:25;2.80;;;0.82;;
75526;SDS011;64107;49.248;7.006;2023-04-15T10:18:56;3.97;;;0.93;;
75526;SDS011;64107;49.248;7.006;2023-04-15T10:21:22;2.15;;;0.88;;
75526;SDS011;64107;49.248;7.006;2023-04-15T10:23:49;2.17;;;1.02;;
75526;SDS011;64107;49.248;7.006;2023-04-15T10:26:15;3.20;;;1.25;;
75526;SDS011;64107;49.248;7.006;2023-04-15T10:28:42;2.35;;;0.80;;
75526;SDS011;64107;49.248;7.006;2023-04-15T10:31:10;2.95;;;0.88;;
75526;SDS011;64107;49.248;7.006;2023-04-15T10:33:38;3.22;;;1.40;;
75526;SDS011;64107;49.248;7.006;2023-04-15T10:36:06;2.35;;;1.08;;
75526;SDS011;64107;49.248;7.006;2023-04-15T10:38:39;1.27;;;0.90;;
75526;SDS011;64107;49.248;7.006;2023-04-15T10:43:48;2.60;;;1.05;;
75526;SDS011;64107;49.248;7.006;2023-04-15T10:46:20;2.45;;;1.65;;
75526;SDS011;64107;49.248;7.006;2023-04-15T10:48:48;3.45;;;1.67;;
75526;SDS011;64107;49.248;7.006;2023-04-15T10:51:15;1.95;;;1.23;;
75526;SDS011;64107;49.248;7.006;2023-04-15T10:53:43;3.38;;;1.85;;
75526;SDS011;64107;49.248;7.006;2023-04-15T10:56:09;4.00;;;1.23;;
75526;SDS011;64107;49.248;7.006;2023-04-15T10:58:41;3.72;;;1.20;;
75526;SDS011;64107;49.248;7.006;2023-04-15T11:01:08;1.83;;;1.10;;
75526;SDS011;64107;49.248;7.006;2023-04-15T11:03:38;3.50;;;1.20;;
75526;SDS011;64107;49.248;7.006;2023-04-15T11:11:22;1.85;;;1.40;;
75526;SDS011;64107;49.248;7.006;2023-04-15T11:14:07;2.63;;;1.27;;
75526;SDS011;64107;49.248;7.006;2023-04-15T11:16:42;2.60;;;1.20;;
75526;SDS011;64107;49.248;7.006;2023-04-15T11:19:09;2.17;;;1.27;;
75526;SDS011;64107;49.248;7.006;2023-04-15T11:21:35;1.63;;;0.90;;
75526;SDS011;64107;49.248;7.006;2023-04-15T11:24:01;2.25;;;1.20;;
75526;SDS011;64107;49.248;7.006;2023-04-15T11:26:28;3.05;;;1.08;;
75526;SDS011;64107;49.248;7.006;2023-04-15T11:28:54;2.35;;;1.00;;
75526;SDS011;64107;49.248;7.006;2023-04-15T11:31:21;2.70;;;1.02;;
75526;SDS011;64107;49.248;7.006;2023-04-15T11:33:55;2.42;;;0.70;;
75526;SDS011;64107;49.248;7.006;2023-04-15T11:36:26;1.63;;;1.02;;
75526;SDS011;64107;49.248;7.006;2023-04-15T11:38:54;2.20;;;0.80;;
75526;SDS011;64107;49.248;7.006;2023-04-15T11:41:24;2.00;;;0.73;;
75526;SDS011;64107;49.248;7.006;2023-04-15T11:43:50;2.30;;;1.27;;
75526;SDS011;64107;49.248;7.006;2023-04-15T11:46:17;3.28;;;1.10;;
75526;SDS011;64107;49.248;7.006;2023-04-15T11:48:45;2.72;;;0.88;;
75526;SDS011;64107;49.248;7.006;2023-04-15T11:51:11;2.17;;;1.10;;
75526;SDS011;64107;49.248;7.006;2023-04-15T11:53:50;4.88;;;1.95;;
75526;SDS011;64107;49.248;7.006;2023-04-15T11:56:20;1.88;;;0.77;;
75526;SDS011;64107;49.248;7.006;2023-04-15T11:58:55;2.70;;;1.15;;
75526;SDS011;64107;49.248;7.006;2023-04-15T12:01:32;4.63;;;1.13;;
75526;SDS011;64107;49.248;7.006;2023-04-15T12:04:00;3.47;;;1.80;;
75526;SDS011;64107;49.248;7.006;2023-04-15T12:06:31;4.63;;;1.15;;
75526;SDS011;64107;49.248;7.006;2023-04-15T12:14:29;3.47;;;1.13;;
75526;SDS011;64107;49.248;7.006;2023-04-15T12:16:57;3.90;;;1.35;;
75526;SDS011;64107;49.248;7.006;2023-04-15T12:19:31;1.95;;;0.80;;
75526;SDS011;64107;49.248;7.006;2023-04-15T12:22:01;1.65;;;1.10;;
75526;SDS011;64107;49.248;7.006;2023-04-15T12:24:32;2.67;;;1.30;;
75526;SDS011;64107;49.248;7.006;2023-04-15T12:27:10;4.88;;;1.30;;
75526;SDS011;64107;49.248;7.006;2023-04-15T12:29:37;5.13;;;2.60;;
75526;SDS011;64107;49.248;7.006;2023-04-15T12:34:37;3.85;;;0.90;;
75526;SDS011;64107;49.248;7.006;2023-04-15T12:37:04;2.35;;;0.70;;
75526;SDS011;64107;49.248;7.006;2023-04-15T12:39:37;4.82;;;1.08;;
75526;SDS011;64107;49.248;7.006;2023-04-15T12:42:04;4.88;;;1.50;;
75526;SDS011;64107;49.248;7.006;2023-04-15T12:44:31;2.22;;;1.40;;
75526;SDS011;64107;49.248;7.006;2023-04-15T12:46:58;3.75;;;1.48;;
75526;SDS011;64107;49.248;7.006;2023-04-15T12:49:25;4.18;;;1.17;;
75526;SDS011;64107;49.248;7.006;2023-04-15T12:51:53;5.63;;;1.20;;
75526;SDS011;64107;49.248;7.006;2023-04-15T12:54:20;2.78;;;1.10;;
75526;SDS011;64107;49.248;7.006;2023-04-15T12:56:47;3.10;;;0.95;;
75526;SDS011;64107;49.248;7.006;2023-04-15T12:59:14;2.28;;;1.10;;
75526;SDS011;64107;49.248;7.006;2023-04-15T13:01:42;1.63;;;1.15;;
75526;SDS011;64107;49.248;7.006;2023-04-15T13:04:09;4.25;;;1.23;;
75526;SDS011;64107;49.248;7.006;2023-04-15T13:06:35;2.00;;;1.17;;
75526;SDS011;64107;49.248;7.006;2023-04-15T13:09:02;3.50;;;1.13;;
75526;SDS011;64107;49.248;7.006;2023-04-15T13:11:28;2.13;;;0.90;;
75526;SDS011;64107;49.248;7.006;2023-04-15T13:13:55;5.15;;;1.25;;
75526;SDS011;64107;49.248;7.006;2023-04-15T13:16:22;2.97;;;0.95;;
75526;SDS011;64107;49.248;7.006;2023-04-15T13:18:48;2.85;;;1.15;;
75526;SDS011;64107;49.248;7.006;2023-04-15T13:21:14;1.90;;;1.20;;
75526;SDS011;64107;49.248;7.006;2023-04-15T13:23:41;3.10;;;1.13;;
75526;SDS011;64107;49.248;7.006;2023-04-15T13:26:07;4.35;;;1.60;;
75526;SDS011;64107;49.248;7.006;2023-04-15T13:28:33;4.15;;;1.50;;
75526;SDS011;64107;49.248;7.006;2023-04-15T13:31:00;2.25;;;1.52;;
75526;SDS011;64107;49.248;7.006;2023-04-15T13:33:26;1.15;;;0.80;;
75526;SDS011;64107;49.248;7.006;2023-04-15T13:35:52;2.50;;;1.15;;
75526;SDS011;64107;49.248;7.006;2023-04-15T13:38:18;1.88;;;0.90;;
75526;SDS011;64107;49.248;7.006;2023-04-15T13:40:45;1.75;;;1.05;;
75526;SDS011;64107;49.248;7.006;2023-04-15T13:43:11;0.98;;;0.93;;
75526;SDS011;64107;49.248;7.006;2023-04-15T13:45:37;1.23;;;0.68;;
75526;SDS011;64107;49.248;7.006;2023-04-15T13:48:03;2.70;;;1.20;;
75526;SDS011;64107;49.248;7.006;2023-04-15T13:50:30;1.85;;;1.08;;
75526;SDS011;64107;49.248;7.006;2023-04-15T13:52:56;0.98;;;0.88;;
75526;SDS011;64107;49.248;7.006;2023-04-15T13:55:22;1.55;;;1.10;;
75526;SDS011;64107;49.248;7.006;2023-04-15T13:57:48;2.00;;;0.80;;
75526;SDS011;64107;49.248;7.006;2023-04-15T14:00:14;1.58;;;0.77;;
75526;SDS011;64107;49.248;7.006;2023-04-15T14:02:41;2.28;;;0.90;;
75526;SDS011;64107;49.248;7.006;2023-04-15T14:05:07;2.28;;;1.10;;
75526;SDS011;64107;49.248;7.006;2023-04-15T14:07:34;2.28;;;0.90;;
75526;SDS011;64107;49.248;7.006;2023-04-15T14:10:00;1.92;;;0.90;;
75526;SDS011;64107;49.248;7.006;2023-04-15T14:12:26;2.38;;;1.05;;
75526;SDS011;64107;49.248;7.006;2023-04-15T14:14:52;0.88;;;0.75;;
75526;SDS011;64107;49.248;7.006;2023-04-15T14:17:18;1.10;;;1.00;;
75526;SDS011;64107;49.248;7.006;2023-04-15T14:19:45;1.27;;;0.90;;
75526;SDS011;64107;49.248;7.006;2023-04-15T14:22:11;2.35;;;1.38;;
75526;SDS011;64107;49.248;7.006;2023-04-15T14:24:37;2.15;;;0.80;;
75526;SDS011;64107;49.248;7.006;2023-04-15T14:27:03;1.35;;;0.70;;
75526;SDS011;64107;49.248;7.006;2023-04-15T14:29:30;1.63;;;1.00;;
75526;SDS011;64107;49.248;7.006;2023-04-15T14:31:56;1.88;;;1.05;;
75526;SDS011;64107;49.248;7.006;2023-04-15T14:34:23;1.35;;;0.68;;
75526;SDS011;64107;49.248;7.006;2023-04-15T14:36:49;0.85;;;0.75;;
75526;SDS011;64107;49.248;7.006;2023-04-15T14:39:19;3.67;;;1.00;;
75526;SDS011;64107;49.248;7.006;2023-04-15T14:41:45;2.60;;;0.98;;
75526;SDS011;64107;49.248;7.006;2023-04-15T14:44:11;3.17;;;0.82;;
75526;SDS011;64107;49.248;7.006;2023-04-15T14:46:37;3.53;;;1.75;;
75526;SDS011;64107;49.248;7.006;2023-04-15T14:49:04;1.98;;;1.25;;
75526;SDS011;64107;49.248;7.006;2023-04-15T14:51:31;2.60;;;1.33;;
75526;SDS011;64107;49.248;7.006;2023-04-15T14:53:57;1.42;;;1.05;;
75526;SDS011;64107;49.248;7.006;2023-04-15T14:56:23;2.92;;;1.00;;
75526;SDS011;64107;49.248;7.006;2023-04-15T14:58:50;2.97;;;1.20;;
75526;SDS011;64107;49.248;7.006;2023-04-15T15:01:18;2.35;;;1.05;;
75526;SDS011;64107;49.248;7.006;2023-04-15T15:03:45;2.05;;;1.23;;
75526;SDS011;64107;49.248;7.006;2023-04-15T15:06:12;0.70;;;0.70;;
75526;SDS011;64107;49.248;7.006;2023-04-15T15:08:38;2.47;;;1.15;;
75526;SDS011;64107;49.248;7.006;2023-04-15T15:11:04;1.15;;;1.00;;
75526;SDS011;64107;49.248;7.006;2023-04-15T15:13:30;4.63;;;1.35;;
75526;SDS011;64107;49.248;7.006;2023-04-15T15:15:56;3.17;;;1.30;;
75526;SDS011;64107;49.248;7.006;2023-04-15T15:18:22;1.65;;;1.55;;
75526;SDS011;64107;49.248;7.006;2023-04-15T15:20:50;2.08;;;1.27;;
75526;SDS011;64107;49.248;7.006;2023-04-15T15:23:16;1.95;;;1.30;;
75526;SDS011;64107;49.248;7.006;2023-04-15T15:25:42;2.30;;;1.27;;
75526;SDS011;64107;49.248;7.006;2023-04-15T15:28:10;1.50;;;1.40;;
75526;SDS011;64107;49.248;7.006;2023-04-15T15:30:36;4.07;;;1.48;;
75526;SDS011;64107;49.248;7.006;2023-04-15T15:33:02;1.27;;;1.08;;
75526;SDS011;64107;49.248;7.006;2023-04-15T15:35:28;1.35;;;1.10;;
75526;SDS011;64107;49.248;7.006;2023-04-15T15:37:54;0.77;;;0.70;;
75526;SDS011;64107;49.248;7.006;2023-04-15T15:40:20;0.93;;;0.75;;
75526;SDS011;64107;49.248;7.006;2023-04-15T15:42:46;2.15;;;0.88;;
75526;SDS011;64107;49.248;7.006;2023-04-15T15:45:14;1.52;;;0.80;;
75526;SDS011;64107;49.248;7.006;2023-04-15T15:47:41;0.80;;;0.80;;
75526;SDS011;64107;49.248;7.006;2023-04-15T15:50:07;1.17;;;0.70;;
75526;SDS011;64107;49.248;7.006;2023-04-15T15:52:34;1.52;;;0.70;;
75526;SDS011;64107;49.248;7.006;2023-04-15T15:55:00;1.15;;;0.57;;
75526;SDS011;64107;49.248;7.006;2023-04-15T15:57:27;0.57;;;0.57;;